x

West Lake Ontario - Grimsby (45139) Wave Buoy

3:00am - Thu 27th Jul 2017 All times are CDT. -5 hours from GMT.

  • Sig Wave height 0.3ft
  • Peak Period 2s
  • Wind
    9mph, 9mph gusts
  • Sea Temp 70°f
  • Air Temp 69°f
  • Sea Pressure 1014.1mb
  • West Lake Ontario - Grimsby
  • West Lake Ontario - Grimsby

More Historic Weather Station data

Upgrade to MSW Pro to gain access to the past 30 days of data for over 8000 Wavebouys and Weather Stations around the globe.

Join Pro

Comparision Forecast

View Surf forecast
   
Thu 07/27 3:00am 0.3ft 2s 9 9 mph 1014.1mb 70f 69f
2:00am 0.3ft 3s 9 9 mph 1014mb 70f 69f
1:00am 0.3ft 3s 4 7 mph 1014.2mb 70f 71f
12:00am 0.3ft 3s 4 9 mph 1014.8mb 70f 71f
Wed 07/26 11:00pm 0.3ft 3s 9 11 mph 1015.1mb 70f 72f
10:00pm 0.7ft 3s 7 11 mph 1015.3mb 70f 71f
9:00pm 0.7ft 3s 9 9 mph 1015.5mb 70f 71f
8:00pm 0.7ft 2s 7 9 mph 1016.1mb 70f 71f
7:00pm 0.7ft 2s 11 13 mph 1016.6mb 70f 69f
6:00pm 0.7ft 3s 11 11 mph 1018mb 70f 69f
4:00pm 0.7ft 3s 2 7 mph 1017.4mb 70f 71f
3:00pm 0.7ft 3s 9 11 mph 1018.1mb 70f 69f
2:00pm 0.7ft 2s 11 13 mph 1017.9mb 70f 69f
1:00pm 0.3ft 2s 13 13 mph 1017.9mb 70f 69f
12:00pm 0.3ft 4s 11 13 mph 1019.2mb 70f 68f
11:00am 0.3ft 4s 7 7 mph 1021.2mb 70f 68f
10:00am 0.3ft 4s 4 7 mph 1021.5mb 70f 68f
9:00am 0.3ft 4s 4 4 mph 1022mb 70f 67f
8:00am 0.3ft 4s 4 4 mph 1021.5mb 70f 67f
7:00am 0.3ft 4s 2 4 mph 1022.2mb 69f 67f
6:00am 0.7ft 4s 4 4 mph 1022.1mb 69f 66f
5:00am 0.7ft 4s 2 2 mph 1022.7mb 69f 66f
4:00am 0.7ft 4s 2 2 mph 1022.8mb 69f 66f
3:00am 0.7ft 4s 2 4 mph 1022.3mb 69f 66f
2:00am 0.7ft 4s 2 4 mph 1022.5mb 69f 66f
1:00am 0.7ft 4s 4 7 mph 1022.6mb 69f 66f
12:00am 1ft 4s 4 4 mph 1022.8mb 69f 66f
Tue 07/25 11:00pm 1ft 5s 7 9 mph 1023mb 69f 67f
10:00pm 1ft 5s 7 9 mph 1023mb 69f 68f
9:00pm 1ft 5s 7 7 mph 1023.2mb 69f 69f
8:00pm 1ft 4s 7 9 mph 1023.1mb 69f 69f
7:00pm 1.3ft 5s 7 9 mph 1022.8mb 70f 69f
6:00pm 1.3ft 5s 4 7 mph 1023mb 70f 69f
5:00pm 1.3ft 5s 4 4 mph 1023.1mb 70f 69f
4:00pm 1.3ft 4s 7 7 mph 1023.2mb 70f 68f
3:00pm 1.6ft 5s 9 11 mph 1022.9mb 69f 68f
2:00pm 1.6ft 4s 9 11 mph 1022.9mb 69f 67f
1:00pm 1.6ft 4s 11 13 mph 1022.6mb 69f 67f
12:00pm 1.6ft 4s 11 13 mph 1022.8mb 69f 66f
11:00am 2ft 4s 9 11 mph 1022.7mb 69f 65f
10:00am 2.5ft 4s 9 13 mph 1022.5mb 69f 65f
9:00am 2.5ft 4s 11 16 mph 1022.1mb 68f 65f
8:00am 2.5ft 4s 13 18 mph 1021.5mb 68f 65f
7:00am 2ft 4s 18 20 mph 1020.6mb 67f 65f
6:00am 2ft 3s 13 18 mph 1020.1mb 67f 65f
5:00am 2ft 4s 13 18 mph 1019.4mb 67f 65f
4:00am 2ft 4s 16 20 mph 1018.5mb 67f 64f
3:00am 2ft 3s 16 20 mph 1017.7mb 67f 64f
2:00am 1.6ft 4s 13 18 mph 1017.2mb 68f 64f
1:00am 2ft 3s 13 18 mph 1016.8mb 68f 65f
12:00am 2ft 4s 16 18 mph 1016.4mb 68f 65f
Mon 07/24 11:00pm 2ft 4s 16 20 mph 1015.9mb 68f 64f
10:00pm 2.5ft 4s 16 18 mph 1015.2mb 68f 64f
9:00pm 2ft 4s 16 20 mph 1014.5mb 68f 65f
8:00pm 2.5ft 4s 18 22 mph 1013.5mb 68f 66f
7:00pm 2ft 4s 16 18 mph 1012.7mb 69f 66f
6:00pm 2ft 4s 9 16 mph 1012mb 69f 66f
5:00pm 1.6ft 3s 13 18 mph 1011.1mb 69f 65f
4:00pm 1ft 3s 18 22 mph 1010mb 69f 68f
3:00pm 1ft 4s 13 16 mph 1009.4mb 70f 67f
2:00pm 1ft 5s 9 11 mph 1008.7mb 70f 69f
1:00pm 1ft 5s 7 9 mph 1008.2mb 70f 71f
12:00pm 1.3ft 5s 9 11 mph 1007.9mb 70f 71f
11:00am 1.6ft 6s 9 11 mph 1007.9mb 70f 70f
10:00am 2ft 5s 13 18 mph 1007.7mb 70f 70f
9:00am 2.5ft 6s 11 13 mph 1007.8mb 69f 70f
8:00am 2.5ft 6s 9 11 mph 1007.7mb 69f 69f
7:00am 2.5ft 6s 4 4 mph 1007.4mb 69f 69f
6:00am  -   -  2
mph
1007.6mb - 69f
5:00am 3ft 6s 7 7 mph 1006.5mb 69f 69f
4:00am 3ft 6s 7 9 mph 1005.9mb 69f 69f
3:00am 2.5ft 6s 2 4 mph 1005.7mb 69f 69f
2:00am 2.5ft 6s 4 7 mph 1005.6mb 69f 69f
1:00am 2.5ft 6s 9 9 mph 1005.9mb 69f 69f
12:00am 2.5ft 5s 11 13 mph 1006.3mb 69f 69f
Sun 07/23 11:00pm 3ft 5s 9 11 mph 1006.6mb 69f 70f
10:00pm 3.5ft 5s 16 18 mph 1006.2mb 69f 70f
9:00pm 4ft 5s 18 22 mph 1006.8mb 69f 71f
8:00pm 3.5ft 6s 18 22 mph 1006.8mb 69f 71f
7:00pm 4ft 6s 18 22 mph 1006mb 70f 70f
6:00pm 4ft 6s 16 20 mph 1005.7mb 70f 71f
5:00pm 4ft 6s 13 16 mph 1006.5mb 70f 71f
4:00pm 3.5ft 5s 13 18 mph 1006.7mb 70f 71f
3:00pm 3.5ft 5s 13 20 mph 1006.9mb 70f 71f
2:00pm 2.5ft 4s 7 9 mph 1007.5mb 70f 71f
1:00pm 2ft 4s 11 13 mph 1007.7mb 70f 71f
12:00pm 1.6ft 4s 13 16 mph 1007.6mb 69f 70f
11:00am 1.3ft 4s 11 13 mph 1007.9mb 70f 70f
10:00am 1.3ft 4s 9 11 mph 1007.7mb 70f 71f